Time;durP1;ratioP1;P1;durP2;ratioP2;P2;SDS_P1;SDS_P2;PMS_P1;PMS_P2;Temp;Humidity;BMP_temperature;BMP_pressure;BME280_temperature;BME280_humidity;BME280_pressure;Samples;Min_cycle;Max_cycle;Signal;HPM_P1;HPM_P2
2021/03/14 00:02:13;;;;;;;3.60;0.88;;;;;;;9.11;49.69;99014.19;5083710;27;98772;-81
2021/03/14 00:04:39;;;;;;;1.92;0.75;;;;;;;9.22;49.25;99018.00;5091489;27;96755;-82
2021/03/14 00:07:05;;;;;;;;;;;;;;;9.42;49.09;99022.97;5089284;27;97149;-80
2021/03/14 00:09:37;;;;;;;4.75;0.82;;;;;;;9.19;49.12;99019.00;5083017;27;98912;-81
2021/03/14 00:12:05;;;;;;;5.25;0.80;;;;;;;8.66;50.06;99016.78;5068563;27;98986;-81
2021/03/14 00:14:31;;;;;;;2.92;0.70;;;;;;;8.93;49.99;99020.47;5076293;27;97668;-81
2021/03/14 00:17:00;;;;;;;5.13;1.30;;;;;;;9.39;48.63;99031.88;5067542;27;96947;-80
2021/03/14 00:19:26;;;;;;;3.05;0.70;;;;;;;9.47;48.77;99023.53;5069877;27;98950;-80
2021/03/14 00:21:52;;;;;;;;;;;;;;;9.13;48.79;99022.84;5069415;27;98846;-80
2021/03/14 00:24:18;;;;;;;3.20;0.80;;;;;;;9.12;49.31;99020.31;5077136;27;96839;-82
2021/03/14 00:26:45;;;;;;;;;;;;;;;8.64;49.92;99029.16;5070758;27;96798;-80
2021/03/14 00:29:11;;;;;;;2.50;1.08;;;;;;;8.70;49.90;99027.03;5081328;27;99136;-79
2021/03/14 00:31:37;;;;;;;;;;;;;;;9.01;48.93;99035.88;5081392;27;97726;-81
2021/03/14 00:34:03;;;;;;;2.65;0.95;;;;;;;8.82;49.17;99046.56;5074134;27;96741;-79
2021/03/14 00:36:29;;;;;;;;;;;;;;;8.83;48.89;99037.75;5073052;27;97072;-79
2021/03/14 00:38:55;;;;;;;3.83;0.65;;;;;;;9.24;48.13;99038.06;5072268;27;99255;-79
2021/03/14 00:41:21;;;;;;;3.50;0.95;;;;;;;9.30;48.18;99045.63;5077969;27;99025;-80
2021/03/14 00:43:48;;;;;;;4.90;0.90;;;;;;;8.97;48.60;99034.34;5058389;27;96986;-79
2021/03/14 00:46:15;;;;;;;1.70;0.80;;;;;;;9.22;47.90;99033.81;5073521;27;96679;-80
2021/03/14 00:48:41;;;;;;;2.03;0.60;;;;;;;9.09;48.15;99034.50;5078855;27;101869;-81
2021/03/14 00:51:07;;;;;;;;;;;;;;;9.39;47.47;99033.69;5074106;27;97689;-80
2021/03/14 00:53:33;;;;;;;2.22;0.98;;;;;;;9.12;48.31;99036.94;5067938;27;97156;-81
2021/03/14 00:55:58;;;;;;;;;;;;;;;9.10;47.99;99027.44;5078430;27;96811;-81
2021/03/14 00:58:24;;;;;;;4.10;0.85;;;;;;;9.03;48.12;99048.03;5069617;27;98953;-80
2021/03/14 01:00:51;;;;;;;3.67;1.02;;;;;;;8.96;48.48;99057.19;5078540;27;98813;-80
2021/03/14 01:03:17;;;;;;;15.65;1.30;;;;;;;8.39;49.50;99043.66;5063306;27;96672;-82
2021/03/14 01:05:43;;;;;;;;;;;;;;;8.68;49.15;99046.47;5075045;27;97070;-82
2021/03/14 01:08:12;;;;;;;1.40;0.80;;;;;;;8.90;48.61;99036.47;5073293;27;98900;-82
2021/03/14 01:10:38;;;;;;;3.92;0.70;;;;;;;9.12;48.24;99038.75;5075006;27;98926;-80
2021/03/14 01:13:04;;;;;;;2.80;0.90;;;;;;;8.67;48.91;99045.63;5079288;27;96799;-80
2021/03/14 01:15:30;;;;;;;4.55;1.05;;;;;;;8.96;48.60;99044.03;5077470;27;96962;-82
2021/03/14 01:17:57;;;;;;;;;;;;;;;8.90;48.26;99038.25;5066708;27;99011;-80
2021/03/14 01:20:23;;;;;;;7.18;1.92;;;;;;;9.10;48.21;99038.84;5078501;27;99665;-82
2021/03/14 01:22:50;;;;;;;6.60;1.33;;;;;;;8.97;48.45;99044.88;5078613;27;96788;-81
2021/03/14 01:25:16;;;;;;;6.03;1.00;;;;;;;8.51;49.44;99049.19;5078125;27;97033;-81
2021/03/14 01:27:45;;;;;;;8.52;1.00;;;;;;;8.70;49.35;99052.53;5077618;27;99514;-81
2021/03/14 01:30:13;;;;;;;4.88;1.13;;;;;;;8.93;48.49;99057.34;5079194;27;99670;-80
2021/03/14 01:32:39;;;;;;;3.60;1.20;;;;;;;9.18;47.87;99041.91;5078777;27;96721;-80
2021/03/14 01:35:06;;;;;;;;;;;;;;;9.03;48.05;99041.91;5081665;27;96765;-81
2021/03/14 01:37:33;;;;;;;7.80;1.00;;;;;;;8.96;48.34;99059.84;5088894;27;98820;-81
2021/03/14 01:39:59;;;;;;;1.80;0.88;;;;;;;8.99;47.88;99049.09;5082329;27;98186;-81
2021/03/14 01:42:25;;;;;;;;;;;;;;;9.27;47.90;99052.84;5079829;27;96794;-81
2021/03/14 01:44:51;;;;;;;1.63;0.90;;;;;;;9.02;47.91;99050.75;5078909;27;96719;-81
2021/03/14 01:47:17;;;;;;;1.60;0.98;;;;;;;8.86;48.41;99052.53;5078523;27;98848;-80
2021/03/14 01:49:43;;;;;;;;;;;;;;;8.95;48.31;99042.31;5079897;27;99183;-82
2021/03/14 01:52:11;;;;;;;4.03;1.20;;;;;;;8.86;48.65;99047.28;5078891;27;96784;-82
2021/03/14 01:54:37;;;;;;;3.45;1.00;;;;;;;9.06;47.84;99053.09;5078379;27;96784;-80
2021/03/14 01:57:03;;;;;;;;;;;;;;;8.81;48.21;99042.22;5078086;27;98905;-82
2021/03/14 01:59:30;;;;;;;12.63;1.88;;;;;;;8.66;48.45;99048.38;5078537;27;97554;-81
2021/03/14 02:01:56;;;;;;;3.90;1.35;;;;;;;9.05;47.92;99045.31;5079378;27;96719;-81
2021/03/14 02:04:22;;;;;;;1.85;1.30;;;;;;;9.03;47.50;99047.19;5079450;27;97047;-81
2021/03/14 02:06:48;;;;;;;4.95;1.48;;;;;;;8.99;48.24;99056.19;5079673;27;99258;-82
2021/03/14 02:09:15;;;;;;;;;;;;;;;8.91;48.06;99032.06;5081752;27;99215;-80
2021/03/14 02:11:44;;;;;;;3.42;1.20;;;;;;;8.74;48.42;99040.88;5080565;27;96721;-81
2021/03/14 02:14:11;;;;;;;1.88;1.02;;;;;;;8.93;48.38;99043.34;5082131;27;96956;-81
2021/03/14 02:16:42;;;;;;;3.28;1.15;;;;;;;8.75;48.55;99045.22;5078695;27;98808;-81
2021/03/14 02:19:11;;;;;;;3.15;1.20;;;;;;;9.04;48.07;99046.25;5095774;27;98849;-82
2021/03/14 02:21:38;;;;;;;4.70;1.30;;;;;;;9.00;47.83;99053.44;5093122;27;96542;-81
2021/03/14 02:24:07;;;;;;;5.75;1.63;;;;;;;9.09;48.05;99042.41;5097619;27;96596;-81
2021/03/14 02:26:40;;;;;;;6.10;1.30;;;;;;;9.01;47.53;99044.63;5087785;27;100173;-81
2021/03/14 02:29:10;;;;;;;6.63;1.35;;;;;;;9.33;47.16;99053.34;5087705;27;99054;-82
2021/03/14 02:31:37;;;;;;;3.60;1.13;;;;;;;9.10;48.26;99066.97;5092855;27;96692;-80
2021/03/14 02:34:06;;;;;;;6.25;1.45;;;;;;;8.84;49.00;99064.94;5085509;27;96779;-80
2021/03/14 02:36:35;;;;;;;10.13;1.83;;;;;;;8.78;49.49;99061.72;5088087;27;97733;-80
2021/03/14 02:39:06;;;;;;;5.20;1.40;;;;;;;9.06;49.33;99091.78;5094865;27;98073;-80
2021/03/14 02:41:33;;;;;;;4.25;1.25;;;;;;;8.47;51.85;99095.03;5094926;27;96677;-80
2021/03/14 02:44:00;;;;;;;5.55;1.75;;;;;;;8.34;52.98;99085.13;5083412;27;96970;-80
2021/03/14 02:46:28;;;;;;;7.45;1.73;;;;;;;8.72;52.60;99103.34;5070397;27;100129;-79
2021/03/14 02:48:55;;;;;;;2.42;1.50;;;;;;;8.57;53.67;99101.50;5080584;27;99202;-81
2021/03/14 02:51:21;;;;;;;5.43;2.03;;;;;;;8.61;53.14;99092.50;5082517;27;96795;-82
2021/03/14 02:53:47;;;;;;;3.85;1.88;;;;;;;8.69;53.29;99095.56;5071458;27;96855;-82
2021/03/14 02:56:14;;;;;;;5.18;1.73;;;;;;;9.02;52.18;99095.53;5065490;27;99024;-81
2021/03/14 02:58:41;;;;;;;10.10;1.92;;;;;;;8.63;53.38;99095.91;5065791;27;98884;-81
2021/03/14 03:01:09;;;;;;;8.38;3.08;;;;;;;8.28;54.42;99101.22;5059911;27;96603;-82
2021/03/14 03:03:36;;;;;;;4.40;2.47;;;;;;;8.91;53.77;99104.03;5071805;27;98091;-82
2021/03/14 03:06:03;;;;;;;4.30;1.90;;;;;;;9.04;53.45;99107.69;5067176;27;98977;-82
2021/03/14 03:08:31;;;;;;;48.67;2.90;;;;;;;8.41;54.78;99106.72;5076591;27;102471;-81
2021/03/14 03:10:59;;;;;;;5.80;2.13;;;;;;;8.18;56.94;99121.06;5072132;27;96783;-81
2021/03/14 03:13:26;;;;;;;6.30;2.10;;;;;;;8.81;55.40;99118.63;5075302;27;96992;-82
2021/03/14 03:15:57;;;;;;;4.53;2.15;;;;;;;8.92;54.93;99129.44;5068369;27;97954;-82
2021/03/14 03:18:23;;;;;;;7.78;2.60;;;;;;;8.50;56.05;99131.72;5070238;27;101702;-82
2021/03/14 03:20:51;;;;;;;7.85;3.20;;;;;;;8.61;56.55;99134.63;5070532;27;96735;-82
2021/03/14 03:23:18;;;;;;;5.65;2.65;;;;;;;7.99;58.67;99122.91;5071771;27;96771;-82
2021/03/14 03:25:44;;;;;;;5.78;2.30;;;;;;;8.15;58.50;99130.88;5062744;27;100956;-81
2021/03/14 03:28:12;;;;;;;5.13;1.70;;;;;;;8.26;58.57;99137.31;5078777;27;99222;-81
2021/03/14 03:30:38;;;;;;;2.78;1.70;;;;;;;7.87;59.37;99144.59;5094999;27;96480;-83
2021/03/14 03:33:04;;;;;;;5.78;2.00;;;;;;;8.28;59.19;99147.72;5071410;27;98600;-82
2021/03/14 03:35:31;;;;;;;5.18;1.63;;;;;;;8.56;58.62;99157.72;5060236;27;98950;-82
2021/03/14 03:37:59;;;;;;;4.13;1.40;;;;;;;8.39;58.70;99151.56;5067592;27;98869;-82
2021/03/14 03:40:27;;;;;;;5.28;1.33;;;;;;;8.29;59.25;99152.91;5077162;27;96694;-82
2021/03/14 03:43:01;;;;;;;1.70;0.93;;;;;;;8.38;59.08;99152.50;5073099;27;96842;-82
2021/03/14 03:45:30;;;;;;;3.08;1.30;;;;;;;8.08;60.57;99168.94;5075796;27;101050;-82
2021/03/14 03:47:57;;;;;;;2.40;1.30;;;;;;;8.24;60.25;99165.47;5070612;27;98833;-81
2021/03/14 03:50:24;;;;;;;1.00;0.80;;;;;;;8.09;60.98;99179.38;5063133;27;96886;-82
2021/03/14 03:52:53;;;;;;;3.15;1.20;;;;;;;8.22;60.43;99174.34;5069110;27;96957;-83
2021/03/14 03:55:20;;;;;;;1.20;0.85;;;;;;;8.22;60.87;99190.16;5071495;27;97481;-82
2021/03/14 03:57:47;;;;;;;2.08;0.80;;;;;;;8.03;60.72;99184.97;5082739;27;98094;-81
2021/03/14 04:00:15;;;;;;;1.15;0.65;;;;;;;7.98;61.49;99200.13;5080268;27;96696;-81
2021/03/14 04:02:43;;;;;;;1.65;1.10;;;;;;;8.18;60.75;99184.19;5074779;27;96773;-83
2021/03/14 04:05:11;;;;;;;19.73;1.42;;;;;;;7.58;62.47;99202.06;5075976;27;101573;-81
2021/03/14 04:07:39;;;;;;;1.33;0.73;;;;;;;7.95;62.19;99208.16;5077370;27;98943;-83
2021/03/14 04:10:09;;;;;;;2.40;0.90;;;;;;;7.72;62.86;99200.53;5075118;27;96957;-82
2021/03/14 04:12:37;;;;;;;2.90;1.00;;;;;;;7.62;63.27;99210.63;5080033;27;96762;-82
2021/03/14 04:15:05;;;;;;;2.40;0.70;;;;;;;8.12;61.81;99215.22;5075360;27;101163;-82
2021/03/14 04:17:32;;;;;;;1.75;0.85;;;;;;;8.18;61.31;99214.91;5076704;27;97796;-82
2021/03/14 04:20:00;;;;;;;1.02;0.50;;;;;;;7.89;62.44;99230.34;5076518;27;98443;-82
2021/03/14 04:22:27;;;;;;;2.35;0.68;;;;;;;7.78;62.69;99230.03;5074725;27;97533;-81
2021/03/14 04:24:55;;;;;;;1.02;0.50;;;;;;;8.11;62.03;99231.94;5068578;27;97705;-81
2021/03/14 04:27:22;;;;;;;2.03;0.75;;;;;;;8.37;61.37;99235.00;5072054;27;98848;-81
2021/03/14 04:29:51;;;;;;;4.13;0.50;;;;;;;7.72;62.12;99245.25;5072625;27;97112;-81
2021/03/14 04:32:17;;;;;;;3.08;0.60;;;;;;;7.71;63.15;99240.91;5066095;27;96739;-81
2021/03/14 04:34:45;;;;;;;0.63;0.43;;;;;;;7.53;63.02;99242.63;5066267;27;98916;-81
2021/03/14 04:37:12;;;;;;;0.40;0.40;;;;;;;7.49;63.88;99248.94;5079511;27;98248;-82
2021/03/14 04:39:39;;;;;;;1.63;0.60;;;;;;;7.66;63.51;99263.94;5074921;27;97231;-81
2021/03/14 04:42:05;;;;;;;1.52;0.70;;;;;;;7.93;62.44;99271.38;5079253;27;97050;-81
2021/03/14 04:44:32;;;;;;;0.65;0.50;;;;;;;8.29;61.28;99265.22;5067796;27;102004;-81
2021/03/14 04:46:59;;;;;;;0.40;0.40;;;;;;;8.10;61.06;99270.53;5080750;27;99166;-82
2021/03/14 04:49:25;;;;;;;0.57;0.40;;;;;;;7.67;62.69;99276.16;5077011;27;96903;-81
2021/03/14 04:51:51;;;;;;;;;;;;;;;7.71;62.11;99280.34;5078033;27;97125;-81
2021/03/14 04:54:18;;;;;;;1.83;0.50;;;;;;;7.77;62.46;99277.41;5079580;27;99225;-81
2021/03/14 04:56:45;;;;;;;0.90;0.32;;;;;;;8.08;61.67;99285.53;5080330;27;100091;-80
2021/03/14 04:59:14;;;;;;;0.43;0.30;;;;;;;7.77;61.55;99282.69;5074280;27;97783;-80
2021/03/14 05:01:43;;;;;;;2.63;0.45;;;;;;;7.49;62.99;99278.69;5088978;27;96742;-81
2021/03/14 05:04:13;;;;;;;2.45;0.60;;;;;;;7.99;61.66;99297.38;5082601;27;100232;-80
2021/03/14 05:06:41;;;;;;;2.50;0.55;;;;;;;7.99;61.88;99302.66;5085235;27;97721;-81
2021/03/14 05:09:08;;;;;;;0.50;0.47;;;;;;;8.18;61.04;99310.50;5078908;27;98501;-82
2021/03/14 05:11:36;;;;;;;0.40;0.40;;;;;;;7.57;63.27;99308.13;5082866;27;98346;-81
2021/03/14 05:14:03;;;;;;;2.33;0.55;;;;;;;7.50;62.63;99311.09;5076068;27;98958;-82
2021/03/14 05:16:30;;;;;;;3.75;1.50;;;;;;;7.67;62.77;99318.22;5070952;27;97525;-81
2021/03/14 05:18:57;;;;;;;1.15;0.60;;;;;;;7.71;62.48;99327.66;5083931;27;96963;-81
2021/03/14 05:21:24;;;;;;;0.88;0.50;;;;;;;7.89;61.94;99337.31;5091620;27;97557;-82
2021/03/14 05:23:51;;;;;;;0.63;0.63;;;;;;;7.72;62.20;99321.50;5093227;27;97871;-81
2021/03/14 05:26:17;;;;;;;0.60;0.50;;;;;;;7.49;62.92;99325.16;5066141;27;99004;-81
2021/03/14 05:28:45;;;;;;;1.02;0.60;;;;;;;7.57;63.01;99334.41;5083608;27;97238;-80
2021/03/14 05:31:29;;;;;;;1.15;0.70;;;;;;;7.89;62.34;99345.22;5079110;27;97097;-81
2021/03/14 05:33:55;;;;;;;0.60;0.55;;;;;;;7.94;61.78;99338.81;5075519;27;99125;-81
2021/03/14 05:36:21;;;;;;;2.60;0.80;;;;;;;7.68;62.72;99352.31;5071551;27;100502;-82
2021/03/14 05:38:48;;;;;;;;;;;;;;;8.06;61.50;99353.19;5078762;27;98062;-81
2021/03/14 05:41:14;;;;;;;4.03;0.68;;;;;;;7.98;61.67;99368.47;5075555;27;96929;-80
2021/03/14 05:43:42;;;;;;;0.60;0.50;;;;;;;8.05;61.74;99363.78;5073053;27;99690;-81
2021/03/14 05:46:09;;;;;;;1.05;0.82;;;;;;;8.21;61.53;99370.84;5065248;27;99167;-82
2021/03/14 05:48:35;;;;;;;0.77;0.47;;;;;;;8.00;61.71;99369.25;5071066;27;97089;-80
2021/03/14 05:51:01;;;;;;;;;;;;;;;7.75;62.81;99374.78;5073217;27;96669;-82
2021/03/14 05:53:28;;;;;;;2.00;0.80;;;;;;;7.84;62.76;99376.13;5075425;27;101569;-81
2021/03/14 05:55:54;;;;;;;1.08;0.60;;;;;;;7.99;62.22;99392.09;5072628;27;98904;-81
2021/03/14 05:58:21;;;;;;;2.58;0.80;;;;;;;7.94;62.51;99395.84;5062375;27;97132;-81
2021/03/14 06:00:49;;;;;;;1.63;0.60;;;;;;;7.88;62.30;99390.84;5072683;27;96732;-82
2021/03/14 06:03:15;;;;;;;1.50;0.60;;;;;;;8.09;61.80;99392.50;5065401;27;101681;-81
2021/03/14 06:05:41;;;;;;;0.50;0.50;;;;;;;8.10;61.56;99401.22;5064564;27;97746;-81
2021/03/14 06:08:07;;;;;;;;;;;;;;;7.79;62.51;99404.44;5077199;27;96799;-81
2021/03/14 06:10:33;;;;;;;0.90;0.47;;;;;;;8.06;61.53;99413.69;5071381;27;97604;-81
2021/03/14 06:13:00;;;;;;;0.73;0.65;;;;;;;7.45;62.82;99408.56;5076518;27;98852;-81
2021/03/14 06:15:27;;;;;;;1.13;0.65;;;;;;;7.67;62.39;99428.66;5070094;27;98863;-81
2021/03/14 06:17:53;;;;;;;0.63;0.45;;;;;;;8.17;61.53;99436.88;5062714;27;96871;-82
2021/03/14 06:20:37;;;;;;;0.70;0.38;;;;;;;8.43;60.66;99452.31;5080570;27;96900;-82
2021/03/14 06:23:08;;;;;;;0.63;0.40;;;;;;;8.08;61.02;99451.28;5075237;27;98063;-83
2021/03/14 06:25:34;;;;;;;1.50;0.77;;;;;;;7.71;63.34;99453.88;5072134;27;97697;-82
2021/03/14 06:28:01;;;;;;;1.23;0.52;;;;;;;8.10;61.69;99453.84;5065823;27;96950;-82
2021/03/14 06:30:29;;;;;;;0.75;0.60;;;;;;;8.24;61.13;99469.88;5076812;27;96710;-83
2021/03/14 06:33:04;;;;;;;1.17;0.80;;;;;;;8.21;60.95;99468.22;5075524;27;97703;-83
2021/03/14 06:35:41;;;;;;;1.38;0.57;;;;;;;8.15;60.99;99473.75;5068829;27;98889;-83
2021/03/14 06:38:23;;;;;;;1.77;0.70;;;;;;;8.34;60.47;99474.66;5069577;27;96772;-81
2021/03/14 06:40:51;;;;;;;3.38;0.70;;;;;;;7.73;62.72;99488.84;5077533;27;96918;-82
2021/03/14 06:43:19;;;;;;;0.57;0.57;;;;;;;8.14;61.30;99505.44;5075096;27;101933;-81
2021/03/14 06:45:45;;;;;;;3.40;0.98;;;;;;;8.16;61.36;99507.06;5075835;27;100282;-81
2021/03/14 06:48:11;;;;;;;1.02;0.70;;;;;;;8.20;61.08;99499.88;5072731;27;96769;-84
2021/03/14 06:50:40;;;;;;;1.45;0.95;;;;;;;8.08;61.31;99503.06;5076885;27;96784;-81
2021/03/14 06:53:13;;;;;;;2.22;0.70;;;;;;;7.09;64.40;99523.06;5075442;27;98030;-81
2021/03/14 06:55:41;;;;;;;0.60;0.60;;;;;;;8.03;61.97;99516.41;5080465;27;98410;-81
2021/03/14 06:58:21;;;;;;;3.42;0.57;;;;;;;7.97;62.19;99543.00;5090347;27;96883;-82
2021/03/14 07:01:12;;;;;;;1.88;0.50;;;;;;;7.84;62.01;99547.09;5071801;27;96889;-82
2021/03/14 07:03:39;;;;;;;3.63;0.55;;;;;;;7.83;62.11;99548.00;5068379;27;98128;-81
2021/03/14 07:06:21;;;;;;;1.75;0.50;;;;;;;8.08;61.37;99555.66;5083834;27;97676;-82
2021/03/14 07:08:49;;;;;;;0.80;0.45;;;;;;;8.04;61.66;99559.38;5087155;27;96774;-82
2021/03/14 07:11:34;;;;;;;0.75;0.70;;;;;;;8.57;59.63;99570.16;5083536;27;96751;-82
2021/03/14 07:14:02;;;;;;;1.52;0.60;;;;;;;8.34;60.49;99579.09;5084857;27;98865;-82
2021/03/14 07:16:45;;;;;;;1.65;0.45;;;;;;;8.52;59.87;99577.41;5085265;27;97100;-82
2021/03/14 07:19:14;;;;;;;1.33;0.52;;;;;;;7.95;61.72;99592.19;5076699;27;96673;-83
2021/03/14 07:21:41;;;;;;;0.60;0.40;;;;;;;8.55;60.03;99595.69;5081681;27;97372;-82
2021/03/14 07:24:11;;;;;;;1.83;0.50;;;;;;;8.81;59.29;99613.78;5076793;27;99783;-80
2021/03/14 07:26:42;;;;;;;1.85;0.60;;;;;;;8.57;59.87;99609.66;5066227;27;96755;-82
2021/03/14 07:29:09;;;;;;;0.95;0.82;;;;;;;8.76;59.60;99624.56;5081756;27;96795;-81
2021/03/14 07:31:36;;;;;;;0.40;0.40;;;;;;;9.11;58.15;99633.47;5069959;27;97221;-82
2021/03/14 07:34:03;;;;;;;2.67;0.68;;;;;;;8.47;59.86;99627.63;5075068;27;99625;-82
2021/03/14 07:36:29;;;;;;;2.78;0.52;;;;;;;8.59;59.46;99626.25;5074416;27;98102;-82
2021/03/14 07:38:56;;;;;;;4.68;0.90;;;;;;;8.89;58.77;99632.75;5077926;27;97228;-82
2021/03/14 07:41:23;;;;;;;2.08;0.70;;;;;;;9.02;58.30;99636.53;5066813;27;98314;-82
2021/03/14 07:43:49;;;;;;;1.10;0.40;;;;;;;9.17;57.67;99641.09;5069421;27;98243;-82
2021/03/14 07:47:24;;;;;;;0.80;0.60;;;;;;;8.95;57.90;99643.00;5071292;27;101289;-82
2021/03/14 07:49:53;;;;;;;1.08;0.52;;;;;;;9.01;57.65;99655.03;5053997;27;97491;-81
2021/03/14 07:52:27;;;;;;;1.10;0.50;;;;;;;8.29;60.41;99663.50;5071519;27;96776;-80
2021/03/14 07:54:57;;;;;;;0.93;0.40;;;;;;;8.88;58.80;99665.28;5069666;27;97935;-80
2021/03/14 07:57:24;;;;;;;7.07;2.15;;;;;;;9.15;57.74;99673.69;5059882;27;98814;-81
2021/03/14 07:59:50;;;;;;;1.10;0.50;;;;;;;8.74;58.97;99679.06;5066896;27;96757;-82
2021/03/14 08:02:27;;;;;;;0.63;0.50;;;;;;;9.03;58.17;99677.75;5077020;27;96791;-81
2021/03/14 08:04:56;;;;;;;0.95;0.55;;;;;;;8.95;58.57;99677.25;5061711;27;98914;-80
2021/03/14 08:07:46;;;;;;;2.10;0.57;;;;;;;8.68;59.19;99681.13;5067620;27;100676;-81
2021/03/14 08:10:32;;;;;;;2.50;0.68;;;;;;;8.80;58.53;99688.47;5070092;27;96877;-80
2021/03/14 08:12:58;;;;;;;1.17;0.70;;;;;;;8.62;59.40;99699.81;5073133;27;96804;-81
2021/03/14 08:15:25;;;;;;;;;;;;;;;8.88;58.63;99706.56;5071640;27;98892;-80
2021/03/14 08:17:53;;;;;;;0.50;0.50;;;;;;;9.02;57.94;99696.25;5072703;27;99189;-82
2021/03/14 08:20:38;;;;;;;1.25;0.60;;;;;;;8.73;59.43;99713.38;5070357;27;96889;-81
2021/03/14 08:23:05;;;;;;;4.00;0.95;;;;;;;9.10;58.02;99716.09;5066445;27;96652;-83
2021/03/14 08:25:38;;;;;;;0.95;0.60;;;;;;;9.10;57.63;99718.72;5066529;27;101606;-81
2021/03/14 08:28:33;;;;;;;2.38;0.82;;;;;;;9.36;57.68;99720.16;5067722;27;99157;-82
2021/03/14 08:31:01;;;;;;;6.25;0.80;;;;;;;9.38;56.82;99733.28;5078683;27;98186;-82
2021/03/14 08:33:33;;;;;;;3.72;1.00;;;;;;;8.94;57.72;99728.22;5075955;27;98606;-82
2021/03/14 08:36:02;;;;;;;4.13;1.10;;;;;;;8.69;59.39;99736.38;5074212;27;98175;-82
2021/03/14 08:38:35;;;;;;;1.33;0.98;;;;;;;9.16;58.03;99731.63;5082147;27;97797;-81
2021/03/14 08:41:25;;;;;;;4.15;1.33;;;;;;;8.83;58.16;99740.16;5099289;27;96724;-81
2021/03/14 08:43:54;;;;;;;2.53;1.25;;;;;;;9.16;57.84;99757.13;5087029;27;96698;-80
2021/03/14 08:46:20;;;;;;;5.22;1.20;;;;;;;9.02;59.00;99751.59;5078884;27;101845;-80
2021/03/14 08:48:47;;;;;;;4.80;1.45;;;;;;;9.17;58.33;99758.81;5068562;27;98832;-82
2021/03/14 08:51:14;;;;;;;3.72;1.13;;;;;;;8.80;59.72;99770.13;5078287;27;97029;-81
2021/03/14 08:53:40;;;;;;;3.70;1.40;;;;;;;9.26;58.62;99766.28;5071829;27;96738;-81
2021/03/14 08:56:09;;;;;;;7.35;3.08;;;;;;;9.65;58.15;99783.88;5070765;27;98030;-81
2021/03/14 08:58:36;;;;;;;4.80;1.42;;;;;;;8.57;61.60;99809.78;5071884;27;98917;-81
2021/03/14 09:01:08;;;;;;;5.18;1.33;;;;;;;8.46;63.24;99827.81;5066657;27;98605;-81
2021/03/14 09:03:41;;;;;;;4.28;1.80;;;;;;;8.56;61.91;99832.63;5074878;27;96881;-81
2021/03/14 09:06:27;;;;;;;2.85;1.13;;;;;;;8.65;61.42;99839.28;5093926;27;99149;-81
2021/03/14 09:08:59;;;;;;;3.43;1.47;;;;;;;8.47;62.37;99830.34;5076063;27;99228;-81
2021/03/14 09:11:39;;;;;;;1.98;1.10;;;;;;;8.88;60.60;99854.97;5087148;27;96799;-81
2021/03/14 09:14:29;;;;;;;2.78;1.05;;;;;;;9.17;59.59;99857.22;5084191;27;97070;-82
2021/03/14 09:16:57;;;;;;;2.55;1.08;;;;;;;9.51;58.50;99850.44;5074680;27;98096;-80
2021/03/14 09:19:29;;;;;;;2.47;0.80;;;;;;;9.06;59.36;99863.84;5073468;27;99002;-80
2021/03/14 09:21:58;;;;;;;1.63;0.80;;;;;;;9.01;59.79;99869.31;5076246;27;97699;-80
2021/03/14 09:24:29;;;;;;;2.17;0.70;;;;;;;9.33;58.96;99872.34;5078912;27;97363;-82
2021/03/14 09:27:00;;;;;;;1.75;1.00;;;;;;;8.62;60.27;99873.63;5082392;27;98012;-80
2021/03/14 09:29:38;;;;;;;2.45;1.13;;;;;;;8.93;60.11;99889.88;5079411;27;97833;-81
2021/03/14 09:32:15;;;;;;;2.47;0.90;;;;;;;9.34;58.79;99900.41;5073765;27;98204;-81
2021/03/14 09:34:41;;;;;;;2.60;0.75;;;;;;;9.36;58.51;99893.31;5076643;27;97230;-81
2021/03/14 09:37:08;;;;;;;;;;;;;;;9.43;58.03;99900.03;5071190;27;98749;-80
2021/03/14 09:39:34;;;;;;;2.92;1.25;;;;;;;9.14;59.05;99901.28;5069691;27;100931;-81
2021/03/14 09:42:00;;;;;;;3.75;1.42;;;;;;;9.79;57.20;99902.78;5071773;27;98754;-82
2021/03/14 09:44:26;;;;;;;4.47;2.00;;;;;;;9.75;56.79;99904.72;5070039;27;97554;-82
2021/03/14 09:46:52;;;;;;;;;;;;;;;9.92;56.34;99904.78;5076662;27;97455;-82
2021/03/14 09:49:19;;;;;;;7.97;2.37;;;;;;;10.08;56.45;99904.94;5074994;27;98774;-81
2021/03/14 09:51:50;;;;;;;6.55;2.00;;;;;;;9.89;56.81;99919.91;5076286;27;97036;-81
2021/03/14 09:54:17;;;;;;;8.88;2.25;;;;;;;10.50;55.36;99919.72;5078807;27;97147;-82
2021/03/14 09:56:55;;;;;;;9.73;2.00;;;;;;;10.93;54.21;99926.41;5077198;27;98123;-80
2021/03/14 09:59:23;;;;;;;5.50;2.05;;;;;;;11.02;54.12;99937.38;5080036;27;98849;-83
2021/03/14 10:01:49;;;;;;;6.47;2.22;;;;;;;11.31;53.30;99937.66;5076966;27;96690;-82
2021/03/14 10:04:15;;;;;;;6.82;2.60;;;;;;;10.45;55.20;99941.06;5078072;27;97479;-82
2021/03/14 10:06:43;;;;;;;9.88;1.98;;;;;;;10.55;54.83;99944.97;5078942;27;98236;-83
2021/03/14 10:09:24;;;;;;;3.10;1.45;;;;;;;10.33;55.59;99955.69;5089711;27;98011;-82
2021/03/14 10:11:51;;;;;;;8.80;1.50;;;;;;;10.81;54.89;99961.34;5074748;27;98079;-83
2021/03/14 10:14:19;;;;;;;6.88;2.33;;;;;;;10.24;56.49;99965.84;5076454;27;98667;-82
2021/03/14 10:16:45;;;;;;;5.55;1.80;;;;;;;10.39;56.34;99971.25;5069713;27;98894;-82
2021/03/14 10:19:12;;;;;;;4.60;1.90;;;;;;;10.86;54.82;99978.69;5064810;27;98925;-82
2021/03/14 10:21:43;;;;;;;4.75;1.58;;;;;;;10.13;55.72;99971.56;5072400;27;98051;-82
2021/03/14 10:24:18;;;;;;;5.75;1.90;;;;;;;10.52;55.53;99990.03;5059329;27;96871;-81
2021/03/14 10:26:56;;;;;;;4.95;1.77;;;;;;;10.44;54.95;99978.09;5074589;27;98291;-82
2021/03/14 10:29:27;;;;;;;8.30;2.30;;;;;;;10.36;55.60;99989.03;5071154;27;99107;-82
2021/03/14 10:31:53;;;;;;;5.13;2.00;;;;;;;10.59;54.87;99995.88;5075761;27;97786;-81
2021/03/14 10:34:20;;;;;;;6.28;2.92;;;;;;;10.67;54.72;99999.88;5071306;27;98563;-82
2021/03/14 10:36:47;;;;;;;5.75;2.25;;;;;;;10.47;55.26;99999.09;5065629;27;98979;-82
2021/03/14 10:39:13;;;;;;;7.28;2.40;;;;;;;10.90;53.26;100005.81;5072859;27;99086;-83
2021/03/14 10:41:40;;;;;;;;;;;;;;;10.72;54.18;100016.34;5076484;27;97127;-81
2021/03/14 10:44:07;;;;;;;5.88;2.50;;;;;;;10.46;54.27;100022.00;5073094;27;96919;-82
2021/03/14 10:46:38;;;;;;;6.10;2.50;;;;;;;10.57;54.62;100017.06;5080437;27;98997;-80
2021/03/14 10:49:06;;;;;;;9.32;2.50;;;;;;;10.16;55.10;100028.66;5079132;27;97720;-80
2021/03/14 10:51:33;;;;;;;6.07;2.30;;;;;;;10.46;54.36;100029.94;5097762;27;96454;-80
2021/03/14 10:54:04;;;;;;;8.80;2.63;;;;;;;10.49;53.59;100023.66;5088403;27;98101;-80
2021/03/14 10:56:35;;;;;;;9.60;3.10;;;;;;;10.69;53.76;100034.16;5078429;27;99645;-83
2021/03/14 10:59:03;;;;;;;6.20;2.40;;;;;;;10.71;53.81;100033.13;5085394;27;96965;-82
2021/03/14 11:01:37;;;;;;;5.55;2.42;;;;;;;11.04;52.76;100035.09;5092744;27;96712;-82
2021/03/14 11:04:07;;;;;;;9.07;2.45;;;;;;;11.16;52.40;100039.78;5100933;27;98346;-83
2021/03/14 11:06:34;;;;;;;10.35;3.50;;;;;;;10.41;54.24;100047.78;5083525;27;97894;-84
2021/03/14 11:09:04;;;;;;;7.32;2.22;;;;;;;11.02;52.93;100047.56;5079004;27;98972;-84
2021/03/14 11:11:38;;;;;;;6.63;2.80;;;;;;;11.43;51.86;100061.38;5094138;27;96762;-84
2021/03/14 11:14:47;;;;;;;9.55;2.72;;;;;;;11.35;51.69;100056.50;5078712;27;97170;-83
2021/03/14 11:17:19;;;;;;;7.38;2.35;;;;;;;11.66;51.18;100071.69;5079033;27;98058;-81
2021/03/14 11:19:47;;;;;;;11.23;2.67;;;;;;;10.82;52.03;100071.44;5070331;27;99385;-82
2021/03/14 11:22:14;;;;;;;7.43;3.00;;;;;;;10.50;53.52;100081.69;5064476;27;97344;-81
2021/03/14 11:24:41;;;;;;;7.82;2.70;;;;;;;10.42;54.14;100082.97;5070764;27;96841;-83
2021/03/14 11:29:36;;;;;;;4.40;1.95;;;;;;;10.75;52.93;100098.16;5073405;22;125319;-83
2021/03/14 11:32:03;;;;;;;8.43;2.40;;;;;;;10.14;53.66;100096.50;5062516;27;97296;-83
2021/03/14 11:34:30;;;;;;;6.55;2.10;;;;;;;10.74;52.62;100100.84;5062103;27;96726;-83
2021/03/14 11:36:56;;;;;;;10.25;2.30;;;;;;;10.67;53.18;100097.63;5070560;27;98196;-82
2021/03/14 11:39:23;;;;;;;5.95;2.25;;;;;;;11.46;51.06;100090.34;5060795;27;100528;-84
2021/03/14 11:41:49;;;;;;;8.25;3.00;;;;;;;11.96;49.18;100101.03;5060395;27;97618;-83
2021/03/14 11:44:16;;;;;;;7.57;2.55;;;;;;;11.94;48.23;100098.50;5060583;27;96950;-84
2021/03/14 11:46:45;;;;;;;8.15;2.17;;;;;;;12.41;47.73;100102.22;5069826;27;98278;-83
2021/03/14 11:49:11;;;;;;;9.68;2.30;;;;;;;12.73;46.24;100098.72;5067953;27;99822;-84
2021/03/14 11:51:41;;;;;;;6.50;2.22;;;;;;;12.87;45.51;100100.59;5062596;27;96713;-82
2021/03/14 11:54:10;;;;;;;8.15;2.22;;;;;;;11.98;47.07;100104.47;5060746;27;97014;-83
2021/03/14 11:56:36;;;;;;;10.60;2.47;;;;;;;12.02;47.78;100105.16;5059836;27;99486;-84